sensor_id;sensor_type;location;lat;lon;timestamp;pressure;altitude;pressure_sealevel;temperature;humidity
37206;BME280;23099;42.636;23.198;2023-04-16T00:00:21;91517.88;;;7.24;71.16
37206;BME280;23099;42.636;23.198;2023-04-16T00:02:47;91519.72;;;7.20;69.06
37206;BME280;23099;42.636;23.198;2023-04-16T00:05:14;91519.56;;;7.13;69.05
37206;BME280;23099;42.636;23.198;2023-04-16T00:07:41;91518.38;;;7.10;70.56
37206;BME280;23099;42.636;23.198;2023-04-16T00:10:08;91522.94;;;7.09;72.14
37206;BME280;23099;42.636;23.198;2023-04-16T00:12:36;91520.25;;;7.09;70.74
37206;BME280;23099;42.636;23.198;2023-04-16T00:15:03;91523.34;;;7.12;71.23
37206;BME280;23099;42.636;23.198;2023-04-16T00:17:29;91517.91;;;7.04;71.43
37206;BME280;23099;42.636;23.198;2023-04-16T00:19:56;91519.16;;;7.10;71.56
37206;BME280;23099;42.636;23.198;2023-04-16T00:22:23;91513.22;;;6.98;73.17
37206;BME280;23099;42.636;23.198;2023-04-16T00:24:49;91510.00;;;6.89;72.55
37206;BME280;23099;42.636;23.198;2023-04-16T00:27:17;91507.69;;;6.87;72.27
37206;BME280;23099;42.636;23.198;2023-04-16T00:29:45;91510.97;;;7.00;73.77
37206;BME280;23099;42.636;23.198;2023-04-16T00:32:12;91520.75;;;6.96;73.59
37206;BME280;23099;42.636;23.198;2023-04-16T00:34:39;91511.97;;;6.92;73.64
37206;BME280;23099;42.636;23.198;2023-04-16T00:37:05;91515.53;;;6.99;73.52
37206;BME280;23099;42.636;23.198;2023-04-16T00:39:32;91509.84;;;7.01;72.06
37206;BME280;23099;42.636;23.198;2023-04-16T00:41:59;91505.59;;;6.96;71.04
37206;BME280;23099;42.636;23.198;2023-04-16T00:44:26;91507.13;;;6.97;71.00
37206;BME280;23099;42.636;23.198;2023-04-16T00:46:55;91499.16;;;6.97;72.75
37206;BME280;23099;42.636;23.198;2023-04-16T00:49:22;91501.81;;;6.97;72.80
37206;BME280;23099;42.636;23.198;2023-04-16T00:51:49;91499.50;;;6.96;71.73
37206;BME280;23099;42.636;23.198;2023-04-16T00:54:16;91499.81;;;6.91;70.85
37206;BME280;23099;42.636;23.198;2023-04-16T00:56:43;91495.88;;;6.85;70.30
37206;BME280;23099;42.636;23.198;2023-04-16T00:59:10;91500.06;;;6.86;71.00
37206;BME280;23099;42.636;23.198;2023-04-16T01:01:37;91494.69;;;6.82;70.19
37206;BME280;23099;42.636;23.198;2023-04-16T01:04:05;91490.63;;;6.88;70.94
37206;BME280;23099;42.636;23.198;2023-04-16T01:06:32;91494.84;;;6.89;71.22
37206;BME280;23099;42.636;23.198;2023-04-16T01:08:58;91484.69;;;6.76;71.16
37206;BME280;23099;42.636;23.198;2023-04-16T01:11:25;91483.28;;;6.62;71.55
37206;BME280;23099;42.636;23.198;2023-04-16T01:13:52;91488.50;;;6.59;71.20
37206;BME280;23099;42.636;23.198;2023-04-16T01:16:18;91480.91;;;6.57;72.63
37206;BME280;23099;42.636;23.198;2023-04-16T01:18:45;91490.31;;;6.55;71.90
37206;BME280;23099;42.636;23.198;2023-04-16T01:21:13;91486.13;;;6.54;72.68
37206;BME280;23099;42.636;23.198;2023-04-16T01:23:40;91485.34;;;6.53;72.99
37206;BME280;23099;42.636;23.198;2023-04-16T01:26:07;91485.78;;;6.55;71.95
37206;BME280;23099;42.636;23.198;2023-04-16T01:28:34;91482.69;;;6.53;70.15
37206;BME280;23099;42.636;23.198;2023-04-16T01:31:00;91485.00;;;6.55;70.64
37206;BME280;23099;42.636;23.198;2023-04-16T01:33:27;91474.47;;;6.58;72.03
37206;BME280;23099;42.636;23.198;2023-04-16T01:35:54;91473.00;;;6.61;71.60
37206;BME280;23099;42.636;23.198;2023-04-16T01:38:22;91472.25;;;6.60;71.23
37206;BME280;23099;42.636;23.198;2023-04-16T01:40:49;91465.31;;;6.56;71.16
37206;BME280;23099;42.636;23.198;2023-04-16T01:43:15;91476.19;;;6.51;70.62
37206;BME280;23099;42.636;23.198;2023-04-16T01:45:42;91471.88;;;6.43;71.06
37206;BME280;23099;42.636;23.198;2023-04-16T01:48:08;91462.88;;;6.47;71.78
37206;BME280;23099;42.636;23.198;2023-04-16T01:50:35;91465.56;;;6.51;72.79
37206;BME280;23099;42.636;23.198;2023-04-16T01:53:02;91460.69;;;6.53;71.05
37206;BME280;23099;42.636;23.198;2023-04-16T01:55:31;91453.22;;;6.58;71.07
37206;BME280;23099;42.636;23.198;2023-04-16T01:57:58;91445.97;;;6.55;70.60
37206;BME280;23099;42.636;23.198;2023-04-16T02:00:25;91452.59;;;6.65;70.93
37206;BME280;23099;42.636;23.198;2023-04-16T02:02:52;91455.88;;;6.58;71.68
37206;BME280;23099;42.636;23.198;2023-04-16T02:05:18;91446.22;;;6.50;69.65
37206;BME280;23099;42.636;23.198;2023-04-16T02:07:45;91439.88;;;6.55;70.77
37206;BME280;23099;42.636;23.198;2023-04-16T02:10:12;91445.19;;;6.55;71.01
37206;BME280;23099;42.636;23.198;2023-04-16T02:12:40;91452.47;;;6.58;70.76
37206;BME280;23099;42.636;23.198;2023-04-16T02:15:10;91445.88;;;6.52;71.02
37206;BME280;23099;42.636;23.198;2023-04-16T02:17:37;91441.00;;;6.54;72.16
37206;BME280;23099;42.636;23.198;2023-04-16T02:20:04;91441.22;;;6.45;71.83
37206;BME280;23099;42.636;23.198;2023-04-16T02:22:32;91438.91;;;6.44;72.55
37206;BME280;23099;42.636;23.198;2023-04-16T02:24:59;91436.25;;;6.44;71.78
37206;BME280;23099;42.636;23.198;2023-04-16T02:27:25;91429.81;;;6.45;71.25
37206;BME280;23099;42.636;23.198;2023-04-16T02:29:53;91437.09;;;6.48;71.87
37206;BME280;23099;42.636;23.198;2023-04-16T02:32:20;91439.31;;;6.46;73.13
37206;BME280;23099;42.636;23.198;2023-04-16T02:34:47;91443.34;;;6.39;72.85
37206;BME280;23099;42.636;23.198;2023-04-16T02:37:14;91436.50;;;6.38;73.62
37206;BME280;23099;42.636;23.198;2023-04-16T02:39:40;91437.63;;;6.37;74.56
37206;BME280;23099;42.636;23.198;2023-04-16T02:42:08;91428.41;;;6.31;74.07
37206;BME280;23099;42.636;23.198;2023-04-16T02:44:34;91435.25;;;6.32;75.49
37206;BME280;23099;42.636;23.198;2023-04-16T02:47:02;91435.94;;;6.29;75.16
37206;BME280;23099;42.636;23.198;2023-04-16T02:49:29;91438.94;;;6.28;76.56
37206;BME280;23099;42.636;23.198;2023-04-16T02:51:56;91437.31;;;6.04;76.10
37206;BME280;23099;42.636;23.198;2023-04-16T02:54:22;91437.44;;;6.11;75.70
37206;BME280;23099;42.636;23.198;2023-04-16T02:56:49;91434.66;;;6.04;78.55
37206;BME280;23099;42.636;23.198;2023-04-16T02:59:16;91450.47;;;6.00;78.64
37206;BME280;23099;42.636;23.198;2023-04-16T03:01:42;91441.31;;;5.98;78.22
37206;BME280;23099;42.636;23.198;2023-04-16T03:04:10;91440.88;;;5.96;77.13
37206;BME280;23099;42.636;23.198;2023-04-16T03:06:37;91442.09;;;5.98;77.13
37206;BME280;23099;42.636;23.198;2023-04-16T03:09:04;91442.31;;;6.09;75.67
37206;BME280;23099;42.636;23.198;2023-04-16T03:11:30;91447.78;;;6.16;76.00
37206;BME280;23099;42.636;23.198;2023-04-16T03:13:57;91450.25;;;6.25;75.00
37206;BME280;23099;42.636;23.198;2023-04-16T03:16:24;91445.94;;;6.36;75.07
37206;BME280;23099;42.636;23.198;2023-04-16T03:18:51;91452.59;;;6.46;75.01
37206;BME280;23099;42.636;23.198;2023-04-16T03:21:19;91461.13;;;6.55;74.02
37206;BME280;23099;42.636;23.198;2023-04-16T03:23:46;91454.44;;;6.61;73.81
37206;BME280;23099;42.636;23.198;2023-04-16T03:26:12;91454.91;;;6.66;71.03
37206;BME280;23099;42.636;23.198;2023-04-16T03:28:39;91458.91;;;6.76;71.90
37206;BME280;23099;42.636;23.198;2023-04-16T03:31:06;91457.91;;;6.84;71.62
37206;BME280;23099;42.636;23.198;2023-04-16T03:33:32;91458.56;;;6.78;74.59
37206;BME280;23099;42.636;23.198;2023-04-16T03:35:59;91456.66;;;6.78;75.95
37206;BME280;23099;42.636;23.198;2023-04-16T03:38:27;91460.44;;;6.77;75.73
37206;BME280;23099;42.636;23.198;2023-04-16T03:40:54;91460.97;;;6.67;75.13
37206;BME280;23099;42.636;23.198;2023-04-16T03:43:20;91458.13;;;6.56;75.39
37206;BME280;23099;42.636;23.198;2023-04-16T03:45:47;91462.22;;;6.54;75.54
37206;BME280;23099;42.636;23.198;2023-04-16T03:48:14;91461.16;;;6.39;76.24
37206;BME280;23099;42.636;23.198;2023-04-16T03:50:44;91462.63;;;6.36;76.60
37206;BME280;23099;42.636;23.198;2023-04-16T03:53:11;91466.81;;;6.37;77.24
37206;BME280;23099;42.636;23.198;2023-04-16T03:55:39;91461.06;;;6.35;78.16
37206;BME280;23099;42.636;23.198;2023-04-16T03:58:06;91463.03;;;6.38;77.62
37206;BME280;23099;42.636;23.198;2023-04-16T04:00:33;91468.44;;;6.42;77.75
37206;BME280;23099;42.636;23.198;2023-04-16T04:02:59;91465.00;;;6.42;77.13
37206;BME280;23099;42.636;23.198;2023-04-16T04:05:26;91463.56;;;6.44;77.60
37206;BME280;23099;42.636;23.198;2023-04-16T04:07:53;91462.91;;;6.51;77.60
37206;BME280;23099;42.636;23.198;2023-04-16T04:10:19;91461.38;;;6.50;77.52
37206;BME280;23099;42.636;23.198;2023-04-16T04:12:47;91467.53;;;6.54;78.05
37206;BME280;23099;42.636;23.198;2023-04-16T04:15:14;91465.31;;;6.56;77.16
37206;BME280;23099;42.636;23.198;2023-04-16T04:17:41;91471.03;;;6.58;76.69
37206;BME280;23099;42.636;23.198;2023-04-16T04:20:08;91472.16;;;6.57;76.79
37206;BME280;23099;42.636;23.198;2023-04-16T04:22:35;91474.22;;;6.63;77.18
37206;BME280;23099;42.636;23.198;2023-04-16T04:25:02;91470.56;;;6.71;79.01
37206;BME280;23099;42.636;23.198;2023-04-16T04:27:29;91477.75;;;6.71;77.60
37206;BME280;23099;42.636;23.198;2023-04-16T04:29:58;91482.56;;;6.65;77.07
37206;BME280;23099;42.636;23.198;2023-04-16T04:32:24;91481.44;;;6.66;75.80
37206;BME280;23099;42.636;23.198;2023-04-16T04:34:51;91476.13;;;6.66;75.94
37206;BME280;23099;42.636;23.198;2023-04-16T04:37:18;91475.88;;;6.71;74.88
37206;BME280;23099;42.636;23.198;2023-04-16T04:39:44;91489.38;;;6.82;75.57
37206;BME280;23099;42.636;23.198;2023-04-16T04:42:11;91488.75;;;6.89;77.62
37206;BME280;23099;42.636;23.198;2023-04-16T04:44:38;91483.09;;;6.90;77.42
37206;BME280;23099;42.636;23.198;2023-04-16T04:47:06;91486.28;;;6.99;76.99
37206;BME280;23099;42.636;23.198;2023-04-16T04:49:33;91483.72;;;7.03;78.30
37206;BME280;23099;42.636;23.198;2023-04-16T04:51:59;91483.84;;;7.10;78.88
37206;BME280;23099;42.636;23.198;2023-04-16T04:54:27;91480.13;;;7.15;76.50
37206;BME280;23099;42.636;23.198;2023-04-16T04:56:54;91481.09;;;7.26;77.36
37206;BME280;23099;42.636;23.198;2023-04-16T04:59:21;91468.31;;;7.31;77.59
37206;BME280;23099;42.636;23.198;2023-04-16T05:01:48;91475.97;;;7.36;78.95
37206;BME280;23099;42.636;23.198;2023-04-16T05:04:16;91478.06;;;7.47;77.16
37206;BME280;23099;42.636;23.198;2023-04-16T05:06:43;91475.88;;;7.52;76.80
37206;BME280;23099;42.636;23.198;2023-04-16T05:09:10;91477.81;;;7.55;78.24
37206;BME280;23099;42.636;23.198;2023-04-16T05:11:37;91475.94;;;7.56;77.81
37206;BME280;23099;42.636;23.198;2023-04-16T05:14:04;91480.66;;;7.66;77.80
37206;BME280;23099;42.636;23.198;2023-04-16T05:16:30;91482.63;;;7.69;78.71
37206;BME280;23099;42.636;23.198;2023-04-16T05:18:57;91483.22;;;7.81;77.53
37206;BME280;23099;42.636;23.198;2023-04-16T05:21:25;91477.69;;;7.94;77.12
37206;BME280;23099;42.636;23.198;2023-04-16T05:23:52;91479.06;;;8.07;76.43
37206;BME280;23099;42.636;23.198;2023-04-16T05:26:19;91487.44;;;8.09;78.49
37206;BME280;23099;42.636;23.198;2023-04-16T05:28:45;91482.66;;;8.18;77.14
37206;BME280;23099;42.636;23.198;2023-04-16T05:31:12;91481.28;;;8.28;75.25
37206;BME280;23099;42.636;23.198;2023-04-16T05:33:39;91472.16;;;8.29;77.08
37206;BME280;23099;42.636;23.198;2023-04-16T05:36:06;91466.91;;;8.32;75.77
37206;BME280;23099;42.636;23.198;2023-04-16T05:38:34;91480.09;;;8.51;75.48
37206;BME280;23099;42.636;23.198;2023-04-16T05:41:00;91477.91;;;8.57;75.99
37206;BME280;23099;42.636;23.198;2023-04-16T05:43:27;91481.97;;;8.47;76.38
37206;BME280;23099;42.636;23.198;2023-04-16T05:45:54;91473.31;;;8.54;75.89
37206;BME280;23099;42.636;23.198;2023-04-16T05:48:20;91481.81;;;8.63;75.16
37206;BME280;23099;42.636;23.198;2023-04-16T05:50:48;91475.53;;;8.78;74.37
37206;BME280;23099;42.636;23.198;2023-04-16T05:53:15;91481.31;;;8.84;73.35
37206;BME280;23099;42.636;23.198;2023-04-16T05:55:44;91478.22;;;8.82;68.35
37206;BME280;23099;42.636;23.198;2023-04-16T05:58:11;91472.25;;;8.89;68.27
37206;BME280;23099;42.636;23.198;2023-04-16T06:00:38;91474.97;;;8.96;68.95
37206;BME280;23099;42.636;23.198;2023-04-16T06:03:05;91474.63;;;8.97;67.46
37206;BME280;23099;42.636;23.198;2023-04-16T06:05:31;91475.91;;;9.10;69.04
37206;BME280;23099;42.636;23.198;2023-04-16T06:07:58;91469.13;;;9.16;69.97
37206;BME280;23099;42.636;23.198;2023-04-16T06:10:25;91474.28;;;9.32;71.18
37206;BME280;23099;42.636;23.198;2023-04-16T06:12:53;91475.16;;;9.43;70.97
37206;BME280;23099;42.636;23.198;2023-04-16T06:15:19;91473.03;;;9.60;69.16
37206;BME280;23099;42.636;23.198;2023-04-16T06:17:46;91471.59;;;9.69;68.71
37206;BME280;23099;42.636;23.198;2023-04-16T06:20:13;91477.84;;;9.87;67.48
37206;BME280;23099;42.636;23.198;2023-04-16T06:22:39;91465.72;;;9.93;67.44
37206;BME280;23099;42.636;23.198;2023-04-16T06:25:07;91466.91;;;10.00;66.78
37206;BME280;23099;42.636;23.198;2023-04-16T06:27:34;91467.38;;;10.12;66.37
37206;BME280;23099;42.636;23.198;2023-04-16T06:30:03;91469.81;;;10.28;65.25
37206;BME280;23099;42.636;23.198;2023-04-16T06:32:30;91471.06;;;10.41;63.64
37206;BME280;23099;42.636;23.198;2023-04-16T06:34:57;91478.03;;;10.56;62.51
37206;BME280;23099;42.636;23.198;2023-04-16T06:37:23;91466.59;;;10.59;62.93
37206;BME280;23099;42.636;23.198;2023-04-16T06:39:50;91472.75;;;10.67;64.35
37206;BME280;23099;42.636;23.198;2023-04-16T06:42:17;91463.59;;;10.68;64.62
37206;BME280;23099;42.636;23.198;2023-04-16T06:44:43;91466.69;;;10.74;65.90
37206;BME280;23099;42.636;23.198;2023-04-16T06:47:11;91458.31;;;10.82;64.41
37206;BME280;23099;42.636;23.198;2023-04-16T06:49:38;91462.19;;;10.92;64.69
37206;BME280;23099;42.636;23.198;2023-04-16T06:52:05;91460.31;;;10.99;63.70
37206;BME280;23099;42.636;23.198;2023-04-16T06:54:32;91459.22;;;11.11;61.59
37206;BME280;23099;42.636;23.198;2023-04-16T06:56:59;91462.72;;;11.22;59.21
37206;BME280;23099;42.636;23.198;2023-04-16T06:59:26;91461.25;;;11.39;57.65
37206;BME280;23099;42.636;23.198;2023-04-16T07:01:52;91457.44;;;11.51;56.98
37206;BME280;23099;42.636;23.198;2023-04-16T07:04:20;91464.00;;;11.67;56.94
37206;BME280;23099;42.636;23.198;2023-04-16T07:06:47;91462.13;;;11.82;56.26
37206;BME280;23099;42.636;23.198;2023-04-16T07:09:14;91459.84;;;11.88;55.77
37206;BME280;23099;42.636;23.198;2023-04-16T07:11:42;91461.41;;;12.07;54.26
37206;BME280;23099;42.636;23.198;2023-04-16T07:14:09;91454.88;;;11.97;52.51
37206;BME280;23099;42.636;23.198;2023-04-16T07:16:36;91464.44;;;12.12;53.47
37206;BME280;23099;42.636;23.198;2023-04-16T07:19:02;91459.84;;;12.27;50.83
37206;BME280;23099;42.636;23.198;2023-04-16T07:21:31;91461.03;;;12.26;51.53
37206;BME280;23099;42.636;23.198;2023-04-16T07:23:57;91463.28;;;12.27;54.27
37206;BME280;23099;42.636;23.198;2023-04-16T07:26:24;91461.03;;;12.22;54.99
37206;BME280;23099;42.636;23.198;2023-04-16T07:28:50;91461.03;;;12.26;56.24
37206;BME280;23099;42.636;23.198;2023-04-16T07:31:17;91458.31;;;12.33;58.37
37206;BME280;23099;42.636;23.198;2023-04-16T07:33:44;91461.75;;;12.48;57.69
37206;BME280;23099;42.636;23.198;2023-04-16T07:36:10;91466.34;;;12.51;56.66
37206;BME280;23099;42.636;23.198;2023-04-16T07:38:39;91467.50;;;12.64;57.42
37206;BME280;23099;42.636;23.198;2023-04-16T07:41:06;91465.16;;;12.80;57.77
37206;BME280;23099;42.636;23.198;2023-04-16T07:43:33;91462.03;;;12.99;57.32
37206;BME280;23099;42.636;23.198;2023-04-16T07:45:59;91475.09;;;12.97;56.88
37206;BME280;23099;42.636;23.198;2023-04-16T07:48:26;91467.38;;;13.10;55.78
37206;BME280;23099;42.636;23.198;2023-04-16T07:50:53;91468.13;;;13.25;55.70
37206;BME280;23099;42.636;23.198;2023-04-16T07:53:19;91470.72;;;13.46;55.00
37206;BME280;23099;42.636;23.198;2023-04-16T07:55:47;91456.00;;;13.75;54.27
37206;BME280;23099;42.636;23.198;2023-04-16T07:58:14;91449.78;;;13.89;52.38
37206;BME280;23099;42.636;23.198;2023-04-16T08:00:42;91455.41;;;14.12;51.41
37206;BME280;23099;42.636;23.198;2023-04-16T08:03:10;91451.28;;;14.49;50.91
37206;BME280;23099;42.636;23.198;2023-04-16T08:05:36;91448.72;;;14.76;49.93
37206;BME280;23099;42.636;23.198;2023-04-16T08:08:03;91450.00;;;15.02;53.24
37206;BME280;23099;42.636;23.198;2023-04-16T08:10:30;91450.22;;;15.18;48.14
37206;BME280;23099;42.636;23.198;2023-04-16T08:12:59;91440.53;;;15.24;47.24
37206;BME280;23099;42.636;23.198;2023-04-16T08:15:25;91439.97;;;15.40;46.97
37206;BME280;23099;42.636;23.198;2023-04-16T08:17:52;91442.94;;;15.49;46.45
37206;BME280;23099;42.636;23.198;2023-04-16T08:20:19;91442.31;;;15.38;47.72
37206;BME280;23099;42.636;23.198;2023-04-16T08:22:46;91448.50;;;15.35;47.27
37206;BME280;23099;42.636;23.198;2023-04-16T08:25:13;91442.81;;;15.29;47.00
37206;BME280;23099;42.636;23.198;2023-04-16T08:27:40;91444.66;;;15.32;46.82
37206;BME280;23099;42.636;23.198;2023-04-16T08:30:09;91439.81;;;15.20;46.27
37206;BME280;23099;42.636;23.198;2023-04-16T08:32:35;91445.31;;;15.09;46.54
37206;BME280;23099;42.636;23.198;2023-04-16T08:35:02;91445.34;;;15.06;46.80
37206;BME280;23099;42.636;23.198;2023-04-16T08:37:29;91446.88;;;15.07;46.21
37206;BME280;23099;42.636;23.198;2023-04-16T08:39:55;91438.97;;;14.93;46.64
37206;BME280;23099;42.636;23.198;2023-04-16T08:42:26;91446.41;;;14.78;46.33
37206;BME280;23099;42.636;23.198;2023-04-16T08:45:03;91447.31;;;14.64;47.94
37206;BME280;23099;42.636;23.198;2023-04-16T08:47:33;91431.56;;;14.63;49.55
37206;BME280;23099;42.636;23.198;2023-04-16T08:50:02;91438.91;;;14.59;49.09
37206;BME280;23099;42.636;23.198;2023-04-16T08:52:29;91440.91;;;14.51;48.33
37206;BME280;23099;42.636;23.198;2023-04-16T08:55:02;91436.69;;;14.50;48.34
37206;BME280;23099;42.636;23.198;2023-04-16T08:57:37;91425.19;;;14.46;48.00
37206;BME280;23099;42.636;23.198;2023-04-16T09:00:08;91432.09;;;14.47;48.11
37206;BME280;23099;42.636;23.198;2023-04-16T09:02:36;91432.03;;;14.54;47.23
37206;BME280;23099;42.636;23.198;2023-04-16T09:05:04;91430.00;;;14.65;47.87
37206;BME280;23099;42.636;23.198;2023-04-16T09:07:33;91439.97;;;14.68;46.68
37206;BME280;23099;42.636;23.198;2023-04-16T09:10:00;91433.44;;;14.69;47.83
37206;BME280;23099;42.636;23.198;2023-04-16T09:12:26;91439.59;;;14.70;48.23
37206;BME280;23099;42.636;23.198;2023-04-16T09:14:55;91435.13;;;14.53;46.42
37206;BME280;23099;42.636;23.198;2023-04-16T09:17:24;91442.66;;;14.68;46.91
37206;BME280;23099;42.636;23.198;2023-04-16T09:19:52;91441.03;;;14.78;47.21
37206;BME280;23099;42.636;23.198;2023-04-16T09:22:19;91440.28;;;14.77;47.41
37206;BME280;23099;42.636;23.198;2023-04-16T09:24:46;91437.03;;;14.93;47.37
37206;BME280;23099;42.636;23.198;2023-04-16T09:27:13;91429.94;;;15.10;46.19
37206;BME280;23099;42.636;23.198;2023-04-16T09:29:41;91425.69;;;15.12;46.86
37206;BME280;23099;42.636;23.198;2023-04-16T09:32:09;91425.34;;;15.07;47.01
37206;BME280;23099;42.636;23.198;2023-04-16T09:34:52;91435.09;;;14.97;45.61
37206;BME280;23099;42.636;23.198;2023-04-16T09:37:21;91435.69;;;14.74;46.78
37206;BME280;23099;42.636;23.198;2023-04-16T09:39:51;91431.06;;;14.75;46.51
37206;BME280;23099;42.636;23.198;2023-04-16T09:42:21;91424.50;;;14.79;47.63
37206;BME280;23099;42.636;23.198;2023-04-16T09:44:48;91427.13;;;15.20;47.57
37206;BME280;23099;42.636;23.198;2023-04-16T09:47:15;91428.97;;;15.61;44.24
37206;BME280;23099;42.636;23.198;2023-04-16T09:49:43;91427.97;;;15.78;44.02
37206;BME280;23099;42.636;23.198;2023-04-16T09:52:12;91416.78;;;16.07;43.88
37206;BME280;23099;42.636;23.198;2023-04-16T09:54:46;91420.88;;;16.42;44.03
37206;BME280;23099;42.636;23.198;2023-04-16T09:57:13;91420.53;;;16.63;42.15
37206;BME280;23099;42.636;23.198;2023-04-16T09:59:40;91419.16;;;16.75;41.50
37206;BME280;23099;42.636;23.198;2023-04-16T10:02:07;91416.59;;;16.68;41.00
37206;BME280;23099;42.636;23.198;2023-04-16T10:04:45;91405.91;;;16.37;41.04
37206;BME280;23099;42.636;23.198;2023-04-16T10:07:12;91415.97;;;16.10;43.48
37206;BME280;23099;42.636;23.198;2023-04-16T10:09:39;91418.19;;;15.88;42.86
37206;BME280;23099;42.636;23.198;2023-04-16T10:12:07;91410.59;;;15.83;43.29
37206;BME280;23099;42.636;23.198;2023-04-16T10:14:35;91416.94;;;15.69;43.69
37206;BME280;23099;42.636;23.198;2023-04-16T10:17:02;91408.34;;;15.78;43.65
37206;BME280;23099;42.636;23.198;2023-04-16T10:19:31;91412.41;;;15.89;42.86
37206;BME280;23099;42.636;23.198;2023-04-16T10:21:58;91407.97;;;15.76;43.58
37206;BME280;23099;42.636;23.198;2023-04-16T10:24:25;91405.03;;;15.94;42.90
37206;BME280;23099;42.636;23.198;2023-04-16T10:26:52;91402.31;;;16.20;43.34
37206;BME280;23099;42.636;23.198;2023-04-16T10:29:21;91390.25;;;16.75;41.40
37206;BME280;23099;42.636;23.198;2023-04-16T10:31:49;91399.06;;;17.19;41.50
37206;BME280;23099;42.636;23.198;2023-04-16T10:34:17;91386.19;;;17.46;39.43
37206;BME280;23099;42.636;23.198;2023-04-16T10:36:47;91390.06;;;17.65;41.36
37206;BME280;23099;42.636;23.198;2023-04-16T10:39:17;91381.25;;;17.81;40.11
37206;BME280;23099;42.636;23.198;2023-04-16T10:41:44;91379.06;;;17.92;38.93
37206;BME280;23099;42.636;23.198;2023-04-16T10:44:12;91381.94;;;18.01;42.36
37206;BME280;23099;42.636;23.198;2023-04-16T10:46:41;91380.69;;;18.22;39.20
37206;BME280;23099;42.636;23.198;2023-04-16T10:49:12;91379.44;;;18.59;39.65
37206;BME280;23099;42.636;23.198;2023-04-16T10:51:40;91381.78;;;18.24;37.80
37206;BME280;23099;42.636;23.198;2023-04-16T10:54:19;91380.75;;;18.34;37.90
37206;BME280;23099;42.636;23.198;2023-04-16T10:56:46;91373.06;;;18.65;37.99
37206;BME280;23099;42.636;23.198;2023-04-16T10:59:17;91372.56;;;18.70;37.75
37206;BME280;23099;42.636;23.198;2023-04-16T11:01:46;91365.28;;;18.84;36.46
37206;BME280;23099;42.636;23.198;2023-04-16T11:04:28;91368.06;;;18.48;38.32
37206;BME280;23099;42.636;23.198;2023-04-16T11:07:08;91360.22;;;18.05;38.12
37206;BME280;23099;42.636;23.198;2023-04-16T11:09:50;91363.69;;;17.89;38.95
37206;BME280;23099;42.636;23.198;2023-04-16T11:12:18;91366.47;;;17.85;38.90
37206;BME280;23099;42.636;23.198;2023-04-16T11:14:47;91362.41;;;17.93;39.11
37206;BME280;23099;42.636;23.198;2023-04-16T11:17:16;91354.38;;;17.90;38.57
37206;BME280;23099;42.636;23.198;2023-04-16T11:19:43;91360.53;;;17.74;40.19
37206;BME280;23099;42.636;23.198;2023-04-16T11:22:11;91358.69;;;17.51;40.00
37206;BME280;23099;42.636;23.198;2023-04-16T11:24:38;91357.09;;;17.34;39.41
37206;BME280;23099;42.636;23.198;2023-04-16T11:27:05;91352.16;;;17.13;40.45
37206;BME280;23099;42.636;23.198;2023-04-16T11:29:32;91343.91;;;17.00;41.47
37206;BME280;23099;42.636;23.198;2023-04-16T11:31:59;91350.19;;;16.93;41.58
37206;BME280;23099;42.636;23.198;2023-04-16T11:34:27;91357.19;;;16.71;41.68
37206;BME280;23099;42.636;23.198;2023-04-16T11:36:54;91356.28;;;16.78;42.34
37206;BME280;23099;42.636;23.198;2023-04-16T11:39:22;91353.84;;;16.64;42.55
37206;BME280;23099;42.636;23.198;2023-04-16T11:41:50;91352.38;;;16.59;43.16
37206;BME280;23099;42.636;23.198;2023-04-16T11:44:20;91340.88;;;16.55;42.82
37206;BME280;23099;42.636;23.198;2023-04-16T11:46:48;91341.63;;;16.55;43.14
37206;BME280;23099;42.636;23.198;2023-04-16T11:49:15;91335.38;;;16.39;42.79
37206;BME280;23099;42.636;23.198;2023-04-16T11:51:44;91336.13;;;16.39;42.58
37206;BME280;23099;42.636;23.198;2023-04-16T11:54:21;91343.22;;;16.53;42.71
37206;BME280;23099;42.636;23.198;2023-04-16T11:56:50;91341.28;;;16.53;43.47
37206;BME280;23099;42.636;23.198;2023-04-16T11:59:19;91332.91;;;16.48;42.81
37206;BME280;23099;42.636;23.198;2023-04-16T12:01:48;91331.72;;;16.49;43.38
37206;BME280;23099;42.636;23.198;2023-04-16T12:04:17;91324.63;;;16.58;43.33
37206;BME280;23099;42.636;23.198;2023-04-16T12:07:04;91326.88;;;16.60;42.22
37206;BME280;23099;42.636;23.198;2023-04-16T12:09:31;91326.34;;;16.72;42.74
37206;BME280;23099;42.636;23.198;2023-04-16T12:11:59;91314.22;;;16.80;42.83
37206;BME280;23099;42.636;23.198;2023-04-16T12:14:26;91311.03;;;16.66;42.51
37206;BME280;23099;42.636;23.198;2023-04-16T12:16:55;91314.56;;;16.82;42.94
37206;BME280;23099;42.636;23.198;2023-04-16T12:19:22;91309.44;;;16.88;42.79
37206;BME280;23099;42.636;23.198;2023-04-16T12:21:49;91309.22;;;16.79;43.59
37206;BME280;23099;42.636;23.198;2023-04-16T12:24:18;91306.59;;;16.75;42.04
37206;BME280;23099;42.636;23.198;2023-04-16T12:26:51;91303.56;;;16.73;41.76
37206;BME280;23099;42.636;23.198;2023-04-16T12:29:22;91301.41;;;16.65;42.26
37206;BME280;23099;42.636;23.198;2023-04-16T12:31:50;91305.75;;;16.58;42.87
37206;BME280;23099;42.636;23.198;2023-04-16T12:34:18;91298.53;;;16.52;43.98
37206;BME280;23099;42.636;23.198;2023-04-16T12:36:46;91298.81;;;16.57;47.41
37206;BME280;23099;42.636;23.198;2023-04-16T12:39:14;91309.78;;;16.47;48.27
37206;BME280;23099;42.636;23.198;2023-04-16T12:41:43;91311.88;;;16.16;49.43
37206;BME280;23099;42.636;23.198;2023-04-16T12:44:11;91314.94;;;15.95;51.02
37206;BME280;23099;42.636;23.198;2023-04-16T12:46:39;91316.69;;;15.81;51.08
37206;BME280;23099;42.636;23.198;2023-04-16T12:49:06;91323.97;;;15.58;55.23
37206;BME280;23099;42.636;23.198;2023-04-16T12:51:34;91339.00;;;15.25;54.98
37206;BME280;23099;42.636;23.198;2023-04-16T12:54:02;91345.53;;;14.97;59.39
37206;BME280;23099;42.636;23.198;2023-04-16T12:56:29;91338.00;;;14.81;61.17